createdAt,value
2023-03-21T00:00:11.311Z,1.75
2023-03-21T00:01:13.957Z,1.78
2023-03-21T00:02:15.880Z,1.74
2023-03-21T00:03:18.477Z,1.67
2023-03-21T00:04:27.091Z,1.64
2023-03-21T00:05:29.643Z,1.70
2023-03-21T00:06:31.962Z,1.71
2023-03-21T00:07:33.861Z,1.75
2023-03-21T00:08:36.456Z,1.74
2023-03-21T00:09:38.996Z,1.71
2023-03-21T00:10:43.898Z,1.63
2023-03-21T00:11:45.952Z,1.71
2023-03-21T00:12:48.283Z,1.70
2023-03-21T00:13:50.291Z,1.67
2023-03-21T00:14:53.660Z,1.66
2023-03-21T00:16:20.098Z,1.64
2023-03-21T00:17:00.249Z,1.61
2023-03-21T00:18:02.452Z,1.62
2023-03-21T00:19:05.034Z,1.62
2023-03-21T00:20:09.542Z,1.61
2023-03-21T00:22:24.923Z,1.71
2023-03-21T00:23:27.692Z,1.71
2023-03-21T00:24:29.761Z,1.60
2023-03-21T00:25:32.528Z,1.55
2023-03-21T00:26:34.741Z,1.56
2023-03-21T00:27:56.860Z,1.55
2023-03-21T00:28:42.775Z,1.51
2023-03-21T00:29:45.362Z,1.47
2023-03-21T00:30:47.961Z,1.40
2023-03-21T00:31:49.979Z,1.38
2023-03-21T00:32:56.425Z,1.30
2023-03-21T00:33:56.249Z,1.32
2023-03-21T00:35:13.951Z,1.35
2023-03-21T00:36:12.590Z,1.31
2023-03-21T00:37:06.584Z,1.27
2023-03-21T00:38:10.017Z,1.25
2023-03-21T00:39:12.287Z,1.23
2023-03-21T00:40:26.649Z,1.26
2023-03-21T00:41:31.708Z,1.27
2023-03-21T00:42:22.319Z,1.27
2023-03-21T00:43:25.081Z,1.26
2023-03-21T00:44:27.874Z,1.22
2023-03-21T00:45:30.005Z,1.16
2023-03-21T00:46:42.819Z,1.04
2023-03-21T00:47:36.549Z,1.08
2023-03-21T00:48:39.041Z,1.09
2023-03-21T00:49:40.932Z,1.14
2023-03-21T00:50:46.618Z,1.12
2023-03-21T00:51:48.568Z,1.16
2023-03-21T00:52:50.624Z,1.15
2023-03-21T00:53:56.040Z,1.20
2023-03-21T00:54:59.703Z,1.19
2023-03-21T00:56:01.783Z,1.18
2023-03-21T00:57:04.179Z,1.21
2023-03-21T00:58:07.393Z,1.17
2023-03-21T00:59:09.391Z,1.18
2023-03-21T01:00:14.072Z,1.18
2023-03-21T01:01:16.730Z,1.15
2023-03-21T01:02:20.205Z,1.11
2023-03-21T01:03:25.148Z,1.12
2023-03-21T01:04:26.922Z,1.09
2023-03-21T01:05:31.630Z,1.04
2023-03-21T01:06:36.921Z,1.09
2023-03-21T01:07:39.361Z,1.09
2023-03-21T01:08:58.114Z,1.09
2023-03-21T01:09:46.732Z,1.05
2023-03-21T01:10:50.689Z,1.11
2023-03-21T01:11:53.148Z,1.13
2023-03-21T01:12:56.306Z,0.96
2023-03-21T01:14:10.855Z,1.14
2023-03-21T01:15:02.543Z,1.11
2023-03-21T01:16:08.032Z,1.18
2023-03-21T01:17:10.146Z,1.16
2023-03-21T01:18:13.347Z,1.18
2023-03-21T01:19:25.640Z,1.17
2023-03-21T01:20:23.683Z,1.17
2023-03-21T01:21:27.194Z,1.17
2023-03-21T01:22:29.212Z,1.14
2023-03-21T01:23:31.361Z,1.15
2023-03-21T01:24:40.438Z,1.11
2023-03-21T01:25:40.181Z,1.11
2023-03-21T01:26:42.449Z,1.09
2023-03-21T01:27:45.241Z,1.17
2023-03-21T01:28:47.324Z,1.16
2023-03-21T01:29:49.348Z,1.14
2023-03-21T01:30:52.030Z,1.09
2023-03-21T01:31:54.046Z,1.10
2023-03-21T01:32:56.418Z,1.04
2023-03-21T01:33:59.604Z,1.06
2023-03-21T01:35:02.073Z,1.09
2023-03-21T01:36:12.774Z,1.11
2023-03-21T01:37:09.113Z,1.03
2023-03-21T01:38:11.953Z,1.07
2023-03-21T01:39:13.862Z,1.12
2023-03-21T01:40:19.542Z,1.12
2023-03-21T01:41:33.433Z,1.12
2023-03-21T01:42:29.037Z,1.14
2023-03-21T01:43:34.126Z,1.19
2023-03-21T01:44:58.329Z,1.18
2023-03-21T01:46:21.123Z,1.08
2023-03-21T01:47:24.292Z,1.15
2023-03-21T01:48:28.762Z,1.14
2023-03-21T01:49:37.213Z,1.08
2023-03-21T01:50:41.430Z,1.00
2023-03-21T01:53:06.122Z,1.04
2023-03-21T01:54:11.386Z,0.86
2023-03-21T01:55:14.524Z,0.83
2023-03-21T01:56:26.199Z,0.89
2023-03-21T01:57:35.511Z,0.88
2023-03-21T01:58:35.620Z,1.02
2023-03-21T01:59:49.921Z,1.07
2023-03-21T02:00:53.109Z,1.07
2023-03-21T02:01:58.909Z,1.02
2023-03-21T02:03:13.783Z,0.94
2023-03-21T02:04:09.324Z,1.01
2023-03-21T02:05:12.834Z,1.00
2023-03-21T02:06:18.775Z,0.96
2023-03-21T02:07:29.526Z,0.95
2023-03-21T02:08:39.651Z,0.93
2023-03-21T02:09:40.680Z,0.97
2023-03-21T02:10:48.861Z,0.96
2023-03-21T02:11:51.587Z,0.94
2023-03-21T02:12:56.811Z,0.99
2023-03-21T02:14:06.134Z,0.95
2023-03-21T02:15:03.398Z,0.92
2023-03-21T02:16:18.923Z,0.94
2023-03-21T02:17:36.585Z,0.98
2023-03-21T02:18:57.771Z,0.98
2023-03-21T02:20:10.553Z,0.89
2023-03-21T02:21:39.416Z,0.93
2023-03-21T02:23:16.759Z,0.90
2023-03-21T02:25:01.223Z,0.94
2023-03-21T02:26:21.377Z,0.97
2023-03-21T02:27:25.302Z,0.93
2023-03-21T02:28:43.153Z,0.92
2023-03-21T02:30:03.473Z,0.90
2023-03-21T02:31:24.443Z,0.88
2023-03-21T02:32:53.288Z,0.94
2023-03-21T02:34:18.999Z,0.94
2023-03-21T02:35:41.530Z,0.91
2023-03-21T02:36:47.659Z,0.89
2023-03-21T02:38:00.171Z,0.90
2023-03-21T02:39:19.035Z,0.88
2023-03-21T02:40:44.821Z,0.82
2023-03-21T02:41:56.396Z,0.83
2023-03-21T02:43:22.216Z,0.85
2023-03-21T02:44:21.079Z,0.78
2023-03-21T02:45:29.935Z,0.73
2023-03-21T02:47:52.826Z,0.73
2023-03-21T02:50:13.445Z,0.64
2023-03-21T02:51:19.207Z,0.64
2023-03-21T02:52:37.860Z,0.68
2023-03-21T02:53:35.488Z,0.72
2023-03-21T02:54:48.104Z,0.73
2023-03-21T02:55:47.034Z,0.79
2023-03-21T02:56:51.343Z,0.77
2023-03-21T02:57:56.678Z,0.73
2023-03-21T02:59:02.595Z,0.73
2023-03-21T03:00:15.812Z,0.71
2023-03-21T03:01:10.084Z,0.69
2023-03-21T03:02:12.783Z,0.67
2023-03-21T03:03:28.030Z,0.64
2023-03-21T03:04:23.953Z,0.61
2023-03-21T03:05:30.065Z,0.63
2023-03-21T03:06:39.026Z,0.54
2023-03-21T03:08:04.572Z,0.48
2023-03-21T03:09:25.086Z,0.50
2023-03-21T03:10:34.015Z,0.48
2023-03-21T03:11:38.972Z,0.53
2023-03-21T03:12:50.558Z,0.54
2023-03-21T03:14:25.243Z,0.53
2023-03-21T03:15:25.807Z,0.53
2023-03-21T03:16:31.601Z,0.57
2023-03-21T03:17:55.726Z,0.53
2023-03-21T03:19:01.819Z,0.50
2023-03-21T03:20:26.866Z,0.50
2023-03-21T03:21:53.716Z,0.50
2023-03-21T03:23:09.076Z,0.48
2023-03-21T03:24:14.776Z,0.42
2023-03-21T03:25:29.800Z,0.39
2023-03-21T03:26:28.217Z,0.33
2023-03-21T03:27:37.995Z,0.40
2023-03-21T03:28:43.655Z,0.39
2023-03-21T03:29:48.292Z,0.42
2023-03-21T03:31:07.533Z,0.40
2023-03-21T03:32:00.717Z,0.41
2023-03-21T03:33:05.845Z,0.42
2023-03-21T03:34:11.631Z,0.35
2023-03-21T03:35:17.006Z,0.36
2023-03-21T03:36:31.483Z,0.30
2023-03-21T03:37:30.112Z,0.27
2023-03-21T03:38:35.697Z,0.24
2023-03-21T03:40:58.661Z,0.27
2023-03-21T03:42:21.704Z,0.23
2023-03-21T03:43:17.541Z,0.11
2023-03-21T03:44:22.013Z,0.23
2023-03-21T03:45:27.722Z,0.22
2023-03-21T03:46:34.585Z,0.22
2023-03-21T03:48:03.778Z,0.20
2023-03-21T03:50:32.983Z,0.27
2023-03-21T03:51:44.996Z,0.18
2023-03-21T03:52:57.436Z,0.28
2023-03-21T03:54:06.703Z,0.27
2023-03-21T03:55:12.538Z,0.29
2023-03-21T03:56:14.660Z,0.34
2023-03-21T03:57:17.308Z,0.20
2023-03-21T03:58:23.765Z,0.10
2023-03-21T03:59:25.253Z,0.17
2023-03-21T04:00:31.174Z,0.17
2023-03-21T04:01:34.570Z,0.19
2023-03-21T04:02:38.056Z,0.16
2023-03-21T04:03:50.774Z,0.19
2023-03-21T04:04:49.713Z,0.16
2023-03-21T04:05:51.616Z,0.16
2023-03-21T04:06:54.219Z,0.17
2023-03-21T04:07:56.119Z,0.21
2023-03-21T04:09:01.662Z,0.25
2023-03-21T04:10:04.743Z,0.27
2023-03-21T04:11:06.974Z,0.24
2023-03-21T04:12:08.845Z,0.21
2023-03-21T04:13:11.360Z,0.24
2023-03-21T04:14:13.707Z,0.27
2023-03-21T04:15:16.008Z,0.35
2023-03-21T04:16:18.669Z,0.39
2023-03-21T04:17:22.148Z,0.38
2023-03-21T04:18:24.504Z,0.37
2023-03-21T04:19:26.474Z,0.45
2023-03-21T04:20:36.675Z,0.39
2023-03-21T04:21:32.379Z,0.38
2023-03-21T04:22:34.248Z,0.28
2023-03-21T04:23:36.434Z,0.16
2023-03-21T04:24:39.052Z,0.15
2023-03-21T04:25:54.002Z,0.14
2023-03-21T04:26:44.865Z,0.05
2023-03-21T04:27:47.405Z,0.03
2023-03-21T04:28:51.312Z,0.02
2023-03-21T04:29:53.367Z,-0.04
2023-03-21T04:31:03.717Z,-0.15
2023-03-21T04:32:00.682Z,0.02
2023-03-21T04:33:02.870Z,0.03
2023-03-21T04:34:05.673Z,-0.02
2023-03-21T04:35:09.197Z,0.04
2023-03-21T04:36:11.419Z,0.06
2023-03-21T04:37:13.370Z,0.07
2023-03-21T04:38:15.239Z,0.09
2023-03-21T04:39:17.307Z,0.10
2023-03-21T04:40:22.512Z,0.10
2023-03-21T04:41:24.613Z,0.16
2023-03-21T04:42:26.647Z,0.30
2023-03-21T04:43:28.664Z,0.32
2023-03-21T04:44:30.580Z,0.31
2023-03-21T04:45:32.607Z,0.30
2023-03-21T04:46:34.985Z,0.28
2023-03-21T04:47:38.140Z,0.34
2023-03-21T04:48:40.370Z,0.36
2023-03-21T04:49:43.067Z,0.39
2023-03-21T04:50:47.103Z,0.44
2023-03-21T04:51:49.135Z,0.50
2023-03-21T04:52:51.158Z,0.54
2023-03-21T04:53:55.397Z,0.58
2023-03-21T04:54:57.458Z,0.69
2023-03-21T04:56:01.783Z,0.77
2023-03-21T04:57:03.959Z,0.87
2023-03-21T04:58:06.065Z,0.93
2023-03-21T04:59:11.423Z,0.96
2023-03-21T05:00:14.988Z,1.02
2023-03-21T05:01:17.124Z,1.08
2023-03-21T05:02:19.070Z,1.13
2023-03-21T05:03:21.159Z,1.16
2023-03-21T05:04:24.870Z,1.20
2023-03-21T05:05:27.158Z,1.20
2023-03-21T05:06:30.880Z,1.21
2023-03-21T05:07:32.951Z,1.32
2023-03-21T05:08:36.133Z,1.33
2023-03-21T05:09:38.134Z,1.37
2023-03-21T05:10:42.480Z,1.47
2023-03-21T05:11:44.841Z,1.41
2023-03-21T05:12:46.737Z,1.38
2023-03-21T05:13:48.631Z,1.39
2023-03-21T05:14:50.953Z,1.38
2023-03-21T05:15:53.894Z,1.42
2023-03-21T05:16:56.599Z,1.51
2023-03-21T05:17:58.734Z,1.58
2023-03-21T05:19:02.913Z,1.56
2023-03-21T05:20:05.945Z,1.60
2023-03-21T05:21:08.584Z,1.71
2023-03-21T05:22:14.546Z,1.74
2023-03-21T05:23:16.502Z,1.75
2023-03-21T05:24:20.829Z,1.76
2023-03-21T05:25:22.850Z,1.70
2023-03-21T05:26:25.531Z,1.74
2023-03-21T05:27:27.453Z,1.73
2023-03-21T05:28:29.342Z,1.72
2023-03-21T05:29:32.839Z,1.75
2023-03-21T05:30:35.077Z,1.85
2023-03-21T05:31:37.234Z,1.86
2023-03-21T05:32:39.977Z,1.89
2023-03-21T05:33:43.190Z,1.94
2023-03-21T05:34:45.210Z,1.97
2023-03-21T05:35:50.134Z,1.96
2023-03-21T05:36:52.998Z,1.98
2023-03-21T05:37:55.109Z,1.79
2023-03-21T05:38:57.022Z,1.95
2023-03-21T05:39:59.031Z,1.88
2023-03-21T05:41:01.820Z,2.00
2023-03-21T05:42:06.862Z,2.06
2023-03-21T05:43:08.835Z,2.14
2023-03-21T05:44:12.813Z,2.23
2023-03-21T05:45:15.575Z,2.31
2023-03-21T05:46:18.838Z,2.43
2023-03-21T05:47:20.933Z,2.42
2023-03-21T05:48:23.011Z,2.59
2023-03-21T05:49:25.750Z,2.66
2023-03-21T05:50:27.910Z,2.75
2023-03-21T05:51:29.970Z,2.83
2023-03-21T05:52:34.369Z,2.94
2023-03-21T05:53:37.449Z,3.08
2023-03-21T05:54:39.504Z,3.23
2023-03-21T05:55:41.396Z,3.23
2023-03-21T05:56:43.763Z,3.08
2023-03-21T05:57:45.793Z,3.10
2023-03-21T05:58:47.809Z,3.25
2023-03-21T05:59:50.409Z,3.46
2023-03-21T06:00:53.143Z,3.55
2023-03-21T06:01:55.833Z,3.65
2023-03-21T06:02:57.771Z,3.81
2023-03-21T06:03:59.945Z,3.82
2023-03-21T06:05:02.003Z,3.84
2023-03-21T06:06:04.480Z,4.06
2023-03-21T06:07:07.443Z,4.27
2023-03-21T06:08:09.413Z,4.30
2023-03-21T06:09:11.819Z,4.20
2023-03-21T06:10:14.218Z,4.29
2023-03-21T06:11:25.800Z,4.52
2023-03-21T06:12:27.766Z,4.60
2023-03-21T06:13:29.657Z,4.71
2023-03-21T06:14:31.555Z,4.92
2023-03-21T06:15:34.239Z,4.67
2023-03-21T06:16:36.259Z,4.97
2023-03-21T06:17:38.355Z,5.14
2023-03-21T06:18:40.364Z,5.40
2023-03-21T06:19:42.331Z,5.48
2023-03-21T06:20:44.354Z,5.65
2023-03-21T06:21:46.679Z,5.79
2023-03-21T06:22:49.024Z,5.40
2023-03-21T06:23:50.927Z,5.33
2023-03-21T06:24:53.117Z,5.83
2023-03-21T06:25:55.002Z,6.06
2023-03-21T06:26:57.073Z,6.17
2023-03-21T06:27:59.064Z,6.39
2023-03-21T06:29:03.594Z,6.35
2023-03-21T06:30:06.970Z,6.32
2023-03-21T06:31:09.085Z,6.53
2023-03-21T06:32:12.425Z,6.58
2023-03-21T06:33:14.305Z,6.83
2023-03-21T06:34:17.465Z,6.91
2023-03-21T06:35:22.638Z,7.17
2023-03-21T06:36:24.810Z,7.21
2023-03-21T06:37:26.897Z,7.17
2023-03-21T06:38:28.804Z,7.06
2023-03-21T06:39:30.930Z,6.95
2023-03-21T06:40:33.418Z,6.95
2023-03-21T06:41:35.922Z,7.32
2023-03-21T06:42:37.832Z,7.53
2023-03-21T06:43:39.725Z,7.08
2023-03-21T06:44:41.627Z,7.33
2023-03-21T06:45:44.429Z,7.55
2023-03-21T06:46:46.571Z,7.63
2023-03-21T06:47:48.611Z,7.94
2023-03-21T06:48:50.644Z,8.20
2023-03-21T06:49:52.528Z,8.40
2023-03-21T06:50:55.175Z,8.54
2023-03-21T06:51:57.580Z,8.55
2023-03-21T06:53:00.051Z,8.68
2023-03-21T06:54:02.396Z,8.66
2023-03-21T06:55:05.566Z,8.33
2023-03-21T06:56:10.398Z,8.82
2023-03-21T06:57:12.308Z,9.03
2023-03-21T06:58:14.312Z,9.20
2023-03-21T06:59:17.156Z,9.30
2023-03-21T07:00:21.780Z,9.28
2023-03-21T07:01:23.939Z,9.29
2023-03-21T07:02:26.135Z,9.24
2023-03-21T07:03:28.624Z,9.23
2023-03-21T07:04:31.284Z,9.32
2023-03-21T07:05:36.884Z,9.45
2023-03-21T07:06:39.923Z,9.53
2023-03-21T07:07:42.134Z,9.66
2023-03-21T07:08:44.111Z,9.86
2023-03-21T07:09:45.981Z,10.07
2023-03-21T07:10:49.050Z,10.18
2023-03-21T07:11:50.953Z,9.48
2023-03-21T07:12:52.974Z,9.48
2023-03-21T07:13:54.872Z,9.57
2023-03-21T07:14:56.744Z,9.95
2023-03-21T07:16:00.223Z,9.81
2023-03-21T07:17:02.461Z,9.73
2023-03-21T07:18:05.342Z,9.14
2023-03-21T07:19:07.385Z,9.53
2023-03-21T07:20:11.365Z,9.81
2023-03-21T07:21:13.827Z,10.08
2023-03-21T07:22:15.900Z,10.34
2023-03-21T07:23:22.901Z,10.35
2023-03-21T07:24:25.951Z,9.43
2023-03-21T07:25:28.006Z,9.50
2023-03-21T07:26:30.216Z,9.76
2023-03-21T07:27:33.087Z,9.58
2023-03-21T07:28:36.157Z,9.96
2023-03-21T07:29:38.066Z,10.27
2023-03-21T07:30:40.497Z,10.52
2023-03-21T07:31:42.676Z,10.64
2023-03-21T07:32:44.965Z,10.68
2023-03-21T07:33:46.880Z,10.55
2023-03-21T07:34:48.772Z,10.13
2023-03-21T07:35:52.149Z,10.47
2023-03-21T07:36:55.573Z,10.87
2023-03-21T07:37:58.012Z,11.00
2023-03-21T07:39:00.103Z,11.05
2023-03-21T07:40:02.488Z,11.01
2023-03-21T07:41:06.717Z,11.05
2023-03-21T07:43:10.549Z,11.24
2023-03-21T07:44:12.607Z,11.36
2023-03-21T07:45:14.599Z,10.39
2023-03-21T07:46:18.490Z,10.41
2023-03-21T07:47:20.690Z,10.84
2023-03-21T07:48:22.893Z,10.39
2023-03-21T07:49:25.064Z,10.45
2023-03-21T07:50:27.944Z,10.28
2023-03-21T07:51:30.017Z,10.64
2023-03-21T07:52:32.488Z,10.88
2023-03-21T07:53:34.867Z,10.76
2023-03-21T07:54:36.751Z,11.02
2023-03-21T07:55:39.397Z,11.15
2023-03-21T07:56:41.841Z,10.69
2023-03-21T07:57:44.400Z,10.66
2023-03-21T07:58:47.705Z,10.72
2023-03-21T07:59:49.824Z,11.17
2023-03-21T08:00:52.689Z,11.24
2023-03-21T08:01:54.621Z,11.43
2023-03-21T08:02:59.024Z,11.62
2023-03-21T08:04:01.392Z,11.82
2023-03-21T08:05:04.172Z,11.26
2023-03-21T08:06:09.016Z,11.75
2023-03-21T08:07:11.590Z,11.19
2023-03-21T08:08:13.492Z,11.65
2023-03-21T08:09:15.762Z,11.65
2023-03-21T08:10:18.753Z,11.41
2023-03-21T08:11:20.651Z,11.36
2023-03-21T08:12:22.663Z,11.47
2023-03-21T08:13:24.571Z,11.71
2023-03-21T08:14:29.808Z,11.86
2023-03-21T08:15:31.837Z,11.45
2023-03-21T08:16:34.494Z,11.99
2023-03-21T08:17:36.572Z,11.99
2023-03-21T08:18:39.458Z,12.13
2023-03-21T08:19:41.372Z,12.13
2023-03-21T08:20:43.696Z,12.22
2023-03-21T08:21:46.074Z,12.33
2023-03-21T08:22:49.077Z,12.36
2023-03-21T08:23:53.479Z,11.92
2023-03-21T08:24:55.534Z,11.89
2023-03-21T08:25:57.561Z,11.66
2023-03-21T08:27:01.291Z,11.56
2023-03-21T08:28:03.840Z,11.97
2023-03-21T08:29:06.991Z,12.31
2023-03-21T08:30:11.673Z,12.31
2023-03-21T08:31:13.878Z,12.46
2023-03-21T08:32:18.630Z,12.51
2023-03-21T08:33:23.039Z,12.62
2023-03-21T08:34:25.164Z,12.39
2023-03-21T08:35:29.534Z,12.62
2023-03-21T08:36:31.931Z,12.66
2023-03-21T08:37:34.587Z,12.60
2023-03-21T08:38:36.470Z,12.30
2023-03-21T08:39:38.373Z,12.34
2023-03-21T08:40:40.692Z,12.31
2023-03-21T08:41:42.864Z,12.23
2023-03-21T08:42:45.140Z,12.61
2023-03-21T08:43:48.536Z,12.24
2023-03-21T08:44:50.509Z,12.17
2023-03-21T08:45:52.401Z,12.11
2023-03-21T08:46:55.384Z,12.38
2023-03-21T08:47:57.397Z,12.67
2023-03-21T08:48:59.530Z,12.72
2023-03-21T08:50:01.513Z,12.73
2023-03-21T08:51:03.786Z,12.81
2023-03-21T08:52:05.842Z,12.42
2023-03-21T08:53:07.773Z,12.31
2023-03-21T08:54:21.167Z,12.25
2023-03-21T08:55:23.107Z,12.46
2023-03-21T08:56:25.451Z,12.86
2023-03-21T08:57:28.169Z,12.69
2023-03-21T08:58:30.092Z,12.78
2023-03-21T08:59:32.324Z,13.09
2023-03-21T09:00:34.568Z,13.20
2023-03-21T09:01:36.634Z,12.94
2023-03-21T09:02:43.186Z,13.06
2023-03-21T09:03:45.230Z,13.08
2023-03-21T09:04:47.433Z,13.25
2023-03-21T09:05:52.473Z,13.20
2023-03-21T09:06:54.510Z,13.27
2023-03-21T09:08:48.504Z,13.28
2023-03-21T09:10:08.286Z,13.42
2023-03-21T09:10:56.450Z,13.61
2023-03-21T09:11:58.786Z,13.68
2023-03-21T09:13:00.807Z,13.84
2023-03-21T09:14:04.816Z,13.92
2023-03-21T09:15:08.859Z,13.93
2023-03-21T09:16:11.379Z,13.96
2023-03-21T09:17:13.340Z,13.80
2023-03-21T09:18:15.790Z,13.76
2023-03-21T09:19:17.794Z,13.38
2023-03-21T09:20:21.882Z,13.50
2023-03-21T09:21:25.093Z,13.58
2023-03-21T09:22:27.202Z,13.27
2023-03-21T09:23:29.224Z,13.44
2023-03-21T09:24:31.212Z,13.70
2023-03-21T09:25:33.119Z,13.76
2023-03-21T09:26:35.228Z,13.85
2023-03-21T09:27:37.429Z,13.71
2023-03-21T09:28:39.852Z,13.61
2023-03-21T09:29:41.870Z,13.61
2023-03-21T09:30:43.962Z,13.71
2023-03-21T09:31:47.169Z,13.61
2023-03-21T09:32:49.207Z,13.12
2023-03-21T09:33:54.905Z,13.19
2023-03-21T09:34:56.946Z,13.35
2023-03-21T09:35:58.972Z,13.11
2023-03-21T09:37:01.218Z,13.25
2023-03-21T09:38:03.113Z,13.47
2023-03-21T09:39:05.113Z,13.55
2023-03-21T09:41:40.150Z,13.70
2023-03-21T09:43:08.231Z,13.56
2023-03-21T09:44:28.846Z,13.73
2023-03-21T09:45:44.990Z,13.83
2023-03-21T09:47:01.818Z,13.74
2023-03-21T09:48:07.010Z,13.74
2023-03-21T09:49:24.630Z,13.81
2023-03-21T09:50:34.089Z,13.95
2023-03-21T09:51:39.911Z,13.85
2023-03-21T09:53:09.895Z,13.79
2023-03-21T09:54:36.702Z,14.01
2023-03-21T09:55:40.868Z,13.86
2023-03-21T09:56:45.722Z,13.91
2023-03-21T09:58:00.525Z,13.82
2023-03-21T09:59:04.658Z,13.98
2023-03-21T10:00:14.129Z,13.96
2023-03-21T10:01:19.109Z,14.12
2023-03-21T10:02:36.964Z,13.95
2023-03-21T10:03:39.359Z,13.77
2023-03-21T10:04:41.291Z,13.99
2023-03-21T10:05:46.170Z,13.80
2023-03-21T10:06:55.040Z,13.86
2023-03-21T10:08:09.647Z,14.04
2023-03-21T10:09:19.460Z,14.19
2023-03-21T10:10:28.789Z,14.13
2023-03-21T10:11:34.120Z,14.13
2023-03-21T10:12:36.060Z,13.86
2023-03-21T10:13:53.531Z,13.75
2023-03-21T10:14:58.202Z,13.96
2023-03-21T10:17:32.989Z,14.31
2023-03-21T10:18:37.404Z,14.30
2023-03-21T10:19:39.509Z,14.34
2023-03-21T10:20:42.135Z,14.16
2023-03-21T10:22:00.283Z,13.99
2023-03-21T10:22:54.495Z,14.11
2023-03-21T10:23:59.168Z,13.99
2023-03-21T10:25:01.212Z,13.97
2023-03-21T10:26:07.045Z,14.03
2023-03-21T10:27:11.145Z,14.00
2023-03-21T10:28:16.836Z,14.00
2023-03-21T10:29:22.696Z,13.84
2023-03-21T10:30:43.248Z,14.02
2023-03-21T10:31:46.856Z,14.13
2023-03-21T10:32:49.424Z,14.31
2023-03-21T10:33:53.675Z,14.33
2023-03-21T10:34:57.810Z,14.14
2023-03-21T10:36:03.627Z,13.92
2023-03-21T10:37:06.467Z,13.90
2023-03-21T10:38:12.150Z,13.69
2023-03-21T10:39:23.824Z,14.03
2023-03-21T10:40:26.051Z,14.15
2023-03-21T10:41:28.038Z,14.23
2023-03-21T10:42:32.148Z,14.31
2023-03-21T10:43:38.650Z,14.34
2023-03-21T10:44:44.444Z,14.39
2023-03-21T10:45:48.062Z,14.53
2023-03-21T10:47:00.306Z,14.50
2023-03-21T10:48:06.485Z,14.45
2023-03-21T10:49:08.692Z,14.52
2023-03-21T10:50:14.611Z,14.24
2023-03-21T10:51:21.337Z,14.37
2023-03-21T10:52:27.004Z,14.30
2023-03-21T10:53:33.174Z,14.39
2023-03-21T10:54:35.255Z,14.43
2023-03-21T10:55:40.320Z,14.50
2023-03-21T10:57:07.636Z,14.35
2023-03-21T10:58:16.419Z,14.43
2023-03-21T10:59:20.753Z,14.17
2023-03-21T11:00:26.571Z,13.98
2023-03-21T11:01:32.360Z,14.35
2023-03-21T11:02:37.125Z,14.57
2023-03-21T11:03:42.367Z,14.69
2023-03-21T11:04:44.794Z,14.67
2023-03-21T11:05:50.421Z,14.77
2023-03-21T11:06:56.195Z,14.55
2023-03-21T11:08:01.642Z,14.61
2023-03-21T11:09:18.276Z,14.52
2023-03-21T11:10:29.688Z,14.58
2023-03-21T11:11:40.806Z,14.72
2023-03-21T11:12:46.480Z,14.78
2023-03-21T11:14:00.855Z,14.89
2023-03-21T11:15:26.603Z,14.85
2023-03-21T11:16:44.565Z,14.77
2023-03-21T11:17:47.088Z,14.70
2023-03-21T11:18:51.156Z,14.82
2023-03-21T11:20:03.503Z,14.63
2023-03-21T11:21:06.714Z,14.79
2023-03-21T11:22:10.849Z,14.81
2023-03-21T11:23:13.208Z,14.87
2023-03-21T11:24:19.171Z,14.93
2023-03-21T11:25:27.871Z,14.89
2023-03-21T11:26:34.116Z,14.90
2023-03-21T11:27:36.383Z,15.00
2023-03-21T11:28:41.156Z,15.04
2023-03-21T11:29:49.675Z,15.12
2023-03-21T11:30:58.673Z,14.92
2023-03-21T11:32:03.326Z,14.81
2023-03-21T11:33:06.356Z,14.89
2023-03-21T11:34:09.207Z,15.00
2023-03-21T11:35:19.686Z,15.06
2023-03-21T11:36:25.503Z,14.98
2023-03-21T11:37:43.163Z,15.03
2023-03-21T11:39:00.450Z,15.26
2023-03-21T11:40:21.330Z,15.27
2023-03-21T11:41:31.586Z,15.27
2023-03-21T11:42:46.207Z,15.16
2023-03-21T11:43:54.316Z,15.16
2023-03-21T11:45:15.423Z,15.27
2023-03-21T11:46:23.424Z,15.41
2023-03-21T11:47:25.646Z,15.39
2023-03-21T11:48:28.955Z,15.38
2023-03-21T11:49:33.169Z,15.38
2023-03-21T11:50:38.869Z,15.42
2023-03-21T11:51:59.947Z,15.38
2023-03-21T11:53:24.672Z,15.51
2023-03-21T11:54:47.160Z,15.62
2023-03-21T11:56:09.530Z,15.66
2023-03-21T11:57:15.511Z,15.53
2023-03-21T11:58:50.472Z,15.48
2023-03-21T12:00:05.306Z,15.45
2023-03-21T12:01:16.910Z,15.27
2023-03-21T12:02:34.907Z,15.41
2023-03-21T12:03:49.734Z,15.51
2023-03-21T12:04:56.193Z,15.45
2023-03-21T12:06:01.380Z,15.43
2023-03-21T12:07:16.270Z,15.40
2023-03-21T12:08:37.493Z,15.20
2023-03-21T12:09:58.689Z,15.29
2023-03-21T12:11:19.787Z,15.21
2023-03-21T12:12:52.761Z,15.28
2023-03-21T12:14:06.888Z,15.25
2023-03-21T12:15:31.015Z,15.18
2023-03-21T12:16:53.798Z,15.25
2023-03-21T12:18:02.590Z,15.43
2023-03-21T12:19:34.417Z,15.58
2023-03-21T12:20:43.301Z,15.48
2023-03-21T12:22:05.642Z,15.49
2023-03-21T12:23:14.489Z,15.55
2023-03-21T12:24:20.498Z,15.65
2023-03-21T12:25:26.249Z,15.62
2023-03-21T12:26:46.791Z,15.54
2023-03-21T12:28:02.908Z,15.57
2023-03-21T12:29:20.636Z,15.56
2023-03-21T12:30:35.632Z,15.66
2023-03-21T12:31:49.081Z,15.84
2023-03-21T12:33:01.212Z,15.86
2023-03-21T12:34:28.122Z,15.85
2023-03-21T12:35:58.452Z,15.94
2023-03-21T12:37:37.946Z,15.95
2023-03-21T12:38:52.939Z,15.91
2023-03-21T12:39:58.746Z,15.79
2023-03-21T12:41:04.759Z,15.76
2023-03-21T12:42:30.269Z,15.81
2023-03-21T12:43:42.032Z,15.80
2023-03-21T12:44:53.798Z,15.86
2023-03-21T12:45:59.497Z,15.84
2023-03-21T12:47:17.342Z,15.83
2023-03-21T12:48:25.812Z,15.83
2023-03-21T12:49:34.676Z,15.54
2023-03-21T12:50:39.294Z,15.70
2023-03-21T12:51:45.069Z,15.56
2023-03-21T12:52:50.751Z,15.62
2023-03-21T12:54:05.236Z,15.51
2023-03-21T12:56:38.536Z,15.50
2023-03-21T12:57:51.169Z,15.47
2023-03-21T12:58:58.061Z,15.35
2023-03-21T13:00:18.922Z,15.42
2023-03-21T13:01:22.388Z,15.42
2023-03-21T13:02:36.936Z,15.35
2023-03-21T13:03:42.071Z,15.35
2023-03-21T13:04:57.498Z,15.33
2023-03-21T13:06:05.708Z,15.18
2023-03-21T13:07:11.478Z,15.17
2023-03-21T13:08:29.135Z,15.30
2023-03-21T13:09:40.370Z,15.29
2023-03-21T13:10:45.954Z,15.20
2023-03-21T13:11:52.706Z,15.21
2023-03-21T13:13:15.295Z,15.07
2023-03-21T13:14:22.680Z,15.07
2023-03-21T13:15:42.942Z,15.06
2023-03-21T13:16:55.058Z,15.04
2023-03-21T13:18:03.768Z,15.09
2023-03-21T13:19:29.303Z,15.09
2023-03-21T13:20:53.611Z,15.05
2023-03-21T13:22:02.312Z,15.17
2023-03-21T13:23:04.493Z,15.17
2023-03-21T13:24:45.645Z,15.24
2023-03-21T13:25:50.170Z,15.28
2023-03-21T13:26:58.874Z,15.26
2023-03-21T13:28:03.487Z,15.30
2023-03-21T13:29:31.040Z,15.18
2023-03-21T13:30:33.195Z,15.22
2023-03-21T13:31:50.876Z,15.24
2023-03-21T13:32:43.860Z,15.32
2023-03-21T13:33:49.652Z,15.39
2023-03-21T13:34:58.308Z,15.39
2023-03-21T13:36:07.369Z,15.41
2023-03-21T13:37:18.233Z,15.33
2023-03-21T13:38:26.160Z,15.27
2023-03-21T13:39:29.385Z,15.25
2023-03-21T13:40:38.686Z,15.26
2023-03-21T13:41:44.296Z,15.12
2023-03-21T13:42:49.960Z,15.13
2023-03-21T13:43:54.721Z,15.04
2023-03-21T13:45:00.036Z,15.13
2023-03-21T13:46:27.369Z,15.13
2023-03-21T13:47:37.282Z,15.10
2023-03-21T13:48:56.255Z,15.06
2023-03-21T13:50:09.997Z,15.04
2023-03-21T13:51:12.178Z,14.98
2023-03-21T13:52:26.527Z,15.03
2023-03-21T13:53:41.769Z,15.05
2023-03-21T13:54:50.180Z,15.03
2023-03-21T13:56:01.690Z,15.03
2023-03-21T13:57:06.011Z,15.03
2023-03-21T13:58:23.810Z,15.05
2023-03-21T14:01:06.982Z,15.02
2023-03-21T14:02:30.802Z,14.92
2023-03-21T14:03:34.510Z,14.88
2023-03-21T14:04:42.670Z,14.89
2023-03-21T14:05:43.861Z,14.84
2023-03-21T14:06:52.649Z,14.83
2023-03-21T14:08:06.066Z,14.78
2023-03-21T14:09:04.272Z,14.76
2023-03-21T14:10:10.677Z,14.75
2023-03-21T14:11:18.619Z,14.79
2023-03-21T14:12:26.817Z,14.83
2023-03-21T14:13:29.821Z,14.84
2023-03-21T14:14:37.052Z,14.79
2023-03-21T14:15:55.849Z,14.81
2023-03-21T14:16:55.933Z,14.86
2023-03-21T14:18:03.398Z,14.95
2023-03-21T14:19:05.529Z,15.01
2023-03-21T14:20:29.637Z,14.98
2023-03-21T14:21:35.627Z,15.01
2023-03-21T14:22:40.511Z,15.05
2023-03-21T14:23:42.562Z,15.08
2023-03-21T14:25:01.538Z,15.07
2023-03-21T14:26:05.539Z,15.04
2023-03-21T14:27:08.154Z,15.08
2023-03-21T14:28:22.243Z,15.05
2023-03-21T14:29:33.339Z,14.97
2023-03-21T14:30:39.424Z,15.02
2023-03-21T14:31:45.276Z,15.04
2023-03-21T14:32:47.662Z,14.99
2023-03-21T14:33:53.034Z,14.92
2023-03-21T14:34:55.941Z,14.97
2023-03-21T14:37:12.199Z,15.11
2023-03-21T14:38:20.483Z,15.05
2023-03-21T14:39:25.623Z,15.01
2023-03-21T14:40:28.972Z,15.01
2023-03-21T14:41:33.086Z,14.97
2023-03-21T14:42:36.892Z,14.96
2023-03-21T14:43:39.588Z,14.93
2023-03-21T14:44:54.457Z,14.90